sensor_id;sensor_type;location;lat;lon;timestamp;P1;durP1;ratioP1;P2;durP2;ratioP2
26750;SDS011;14345;48.272;25.926;2022-07-29T00:01:13;3.30;;;2.00;;
26750;SDS011;14345;48.272;25.926;2022-07-29T00:03:40;3.17;;;1.80;;
26750;SDS011;14345;48.272;25.926;2022-07-29T00:06:06;2.40;;;1.83;;
26750;SDS011;14345;48.272;25.926;2022-07-29T00:08:32;2.13;;;1.83;;
26750;SDS011;14345;48.272;25.926;2022-07-29T00:10:58;2.08;;;1.63;;
26750;SDS011;14345;48.272;25.926;2022-07-29T00:13:24;11.45;;;7.03;;
26750;SDS011;14345;48.272;25.926;2022-07-29T00:15:50;7.90;;;5.53;;
26750;SDS011;14345;48.272;25.926;2022-07-29T00:18:16;7.93;;;3.80;;
26750;SDS011;14345;48.272;25.926;2022-07-29T00:20:42;4.28;;;2.95;;
26750;SDS011;14345;48.272;25.926;2022-07-29T00:23:08;5.43;;;2.80;;
26750;SDS011;14345;48.272;25.926;2022-07-29T00:25:34;3.13;;;2.25;;
26750;SDS011;14345;48.272;25.926;2022-07-29T00:28:00;3.35;;;2.10;;
26750;SDS011;14345;48.272;25.926;2022-07-29T00:30:26;2.42;;;1.90;;
26750;SDS011;14345;48.272;25.926;2022-07-29T00:32:52;5.25;;;1.95;;
26750;SDS011;14345;48.272;25.926;2022-07-29T00:35:18;3.05;;;2.25;;
26750;SDS011;14345;48.272;25.926;2022-07-29T00:38:03;4.13;;;1.92;;
26750;SDS011;14345;48.272;25.926;2022-07-29T00:40:29;3.83;;;2.08;;
26750;SDS011;14345;48.272;25.926;2022-07-29T00:42:55;2.38;;;1.65;;
26750;SDS011;14345;48.272;25.926;2022-07-29T00:45:21;3.53;;;1.80;;
26750;SDS011;14345;48.272;25.926;2022-07-29T00:47:47;2.88;;;1.63;;
26750;SDS011;14345;48.272;25.926;2022-07-29T00:50:14;2.25;;;1.88;;
26750;SDS011;14345;48.272;25.926;2022-07-29T00:52:40;2.67;;;1.85;;
26750;SDS011;14345;48.272;25.926;2022-07-29T00:55:08;2.88;;;1.80;;
26750;SDS011;14345;48.272;25.926;2022-07-29T00:57:34;2.33;;;2.00;;
26750;SDS011;14345;48.272;25.926;2022-07-29T01:00:02;4.13;;;2.10;;
26750;SDS011;14345;48.272;25.926;2022-07-29T01:02:29;4.15;;;2.10;;
26750;SDS011;14345;48.272;25.926;2022-07-29T01:04:55;2.42;;;2.00;;
26750;SDS011;14345;48.272;25.926;2022-07-29T01:07:22;4.20;;;1.95;;
26750;SDS011;14345;48.272;25.926;2022-07-29T01:09:49;4.32;;;2.00;;
26750;SDS011;14345;48.272;25.926;2022-07-29T01:12:17;2.28;;;1.92;;
26750;SDS011;14345;48.272;25.926;2022-07-29T01:14:43;2.10;;;1.75;;
26750;SDS011;14345;48.272;25.926;2022-07-29T01:17:14;2.10;;;1.85;;
26750;SDS011;14345;48.272;25.926;2022-07-29T01:30:22;2.05;;;1.55;;
26750;SDS011;14345;48.272;25.926;2022-07-29T01:32:51;2.75;;;1.80;;
26750;SDS011;14345;48.272;25.926;2022-07-29T01:35:23;9.65;;;5.22;;
26750;SDS011;14345;48.272;25.926;2022-07-29T01:40:27;9.77;;;7.05;;
26750;SDS011;14345;48.272;25.926;2022-07-29T01:42:55;6.03;;;4.47;;
26750;SDS011;14345;48.272;25.926;2022-07-29T01:45:26;5.55;;;3.47;;
26750;SDS011;14345;48.272;25.926;2022-07-29T01:48:06;3.55;;;2.58;;
26750;SDS011;14345;48.272;25.926;2022-07-29T01:50:38;2.80;;;1.90;;
26750;SDS011;14345;48.272;25.926;2022-07-29T01:53:06;3.30;;;2.25;;
26750;SDS011;14345;48.272;25.926;2022-07-29T01:55:35;2.53;;;1.88;;
26750;SDS011;14345;48.272;25.926;2022-07-29T01:58:03;2.35;;;1.42;;
26750;SDS011;14345;48.272;25.926;2022-07-29T02:00:30;2.88;;;1.70;;
26750;SDS011;14345;48.272;25.926;2022-07-29T02:02:58;3.03;;;1.80;;
26750;SDS011;14345;48.272;25.926;2022-07-29T02:05:24;2.97;;;1.85;;
26750;SDS011;14345;48.272;25.926;2022-07-29T02:07:52;2.97;;;1.90;;
26750;SDS011;14345;48.272;25.926;2022-07-29T02:10:20;3.20;;;1.73;;
26750;SDS011;14345;48.272;25.926;2022-07-29T02:12:47;2.25;;;1.38;;
26750;SDS011;14345;48.272;25.926;2022-07-29T02:15:14;3.80;;;1.80;;
26750;SDS011;14345;48.272;25.926;2022-07-29T02:17:41;1.88;;;1.40;;
26750;SDS011;14345;48.272;25.926;2022-07-29T02:20:08;1.98;;;1.40;;
26750;SDS011;14345;48.272;25.926;2022-07-29T02:22:35;3.50;;;1.50;;
26750;SDS011;14345;48.272;25.926;2022-07-29T02:25:02;2.72;;;1.20;;
26750;SDS011;14345;48.272;25.926;2022-07-29T02:27:29;1.52;;;1.25;;
26750;SDS011;14345;48.272;25.926;2022-07-29T02:29:56;2.53;;;1.50;;
26750;SDS011;14345;48.272;25.926;2022-07-29T02:32:23;2.47;;;1.33;;
26750;SDS011;14345;48.272;25.926;2022-07-29T02:34:50;1.40;;;1.30;;
26750;SDS011;14345;48.272;25.926;2022-07-29T02:37:17;2.35;;;1.90;;
26750;SDS011;14345;48.272;25.926;2022-07-29T02:39:43;2.88;;;1.40;;
26750;SDS011;14345;48.272;25.926;2022-07-29T02:42:11;2.38;;;1.10;;
26750;SDS011;14345;48.272;25.926;2022-07-29T02:44:38;2.00;;;1.55;;
26750;SDS011;14345;48.272;25.926;2022-07-29T02:47:24;2.35;;;1.58;;
26750;SDS011;14345;48.272;25.926;2022-07-29T02:52:32;1.65;;;1.40;;
26750;SDS011;14345;48.272;25.926;2022-07-29T02:57:37;3.38;;;1.52;;
26750;SDS011;14345;48.272;25.926;2022-07-29T03:00:06;1.80;;;1.25;;
26750;SDS011;14345;48.272;25.926;2022-07-29T03:02:34;1.35;;;1.25;;
26750;SDS011;14345;48.272;25.926;2022-07-29T03:05:01;2.50;;;1.88;;
26750;SDS011;14345;48.272;25.926;2022-07-29T03:07:28;6.15;;;3.70;;
26750;SDS011;14345;48.272;25.926;2022-07-29T03:09:55;4.70;;;2.42;;
26750;SDS011;14345;48.272;25.926;2022-07-29T03:12:21;4.70;;;2.25;;
26750;SDS011;14345;48.272;25.926;2022-07-29T03:14:48;2.72;;;2.08;;
26750;SDS011;14345;48.272;25.926;2022-07-29T03:17:14;2.35;;;2.15;;
26750;SDS011;14345;48.272;25.926;2022-07-29T03:19:40;2.47;;;1.95;;
26750;SDS011;14345;48.272;25.926;2022-07-29T03:22:06;1.67;;;1.58;;
26750;SDS011;14345;48.272;25.926;2022-07-29T03:24:34;2.60;;;1.60;;
26750;SDS011;14345;48.272;25.926;2022-07-29T03:27:00;3.53;;;1.75;;
26750;SDS011;14345;48.272;25.926;2022-07-29T03:29:27;3.00;;;1.63;;
26750;SDS011;14345;48.272;25.926;2022-07-29T03:31:53;3.60;;;1.85;;
26750;SDS011;14345;48.272;25.926;2022-07-29T03:34:19;3.20;;;2.30;;
26750;SDS011;14345;48.272;25.926;2022-07-29T03:36:45;5.13;;;4.50;;
26750;SDS011;14345;48.272;25.926;2022-07-29T03:39:11;4.47;;;3.38;;
26750;SDS011;14345;48.272;25.926;2022-07-29T03:41:39;4.20;;;2.75;;
26750;SDS011;14345;48.272;25.926;2022-07-29T03:44:06;3.67;;;2.92;;
26750;SDS011;14345;48.272;25.926;2022-07-29T03:46:33;5.60;;;2.40;;
26750;SDS011;14345;48.272;25.926;2022-07-29T03:49:00;2.55;;;2.22;;
26750;SDS011;14345;48.272;25.926;2022-07-29T03:51:26;3.25;;;2.50;;
26750;SDS011;14345;48.272;25.926;2022-07-29T03:53:52;4.13;;;2.30;;
26750;SDS011;14345;48.272;25.926;2022-07-29T03:56:21;4.28;;;1.80;;
26750;SDS011;14345;48.272;25.926;2022-07-29T03:58:50;4.55;;;2.20;;
26750;SDS011;14345;48.272;25.926;2022-07-29T04:01:17;7.82;;;2.42;;
26750;SDS011;14345;48.272;25.926;2022-07-29T04:03:44;3.33;;;2.20;;
26750;SDS011;14345;48.272;25.926;2022-07-29T04:06:10;4.30;;;2.00;;
26750;SDS011;14345;48.272;25.926;2022-07-29T04:08:36;2.05;;;1.70;;
26750;SDS011;14345;48.272;25.926;2022-07-29T04:11:03;4.75;;;1.73;;
26750;SDS011;14345;48.272;25.926;2022-07-29T04:13:30;3.08;;;1.88;;
26750;SDS011;14345;48.272;25.926;2022-07-29T04:15:56;4.13;;;2.30;;
26750;SDS011;14345;48.272;25.926;2022-07-29T04:18:23;3.30;;;2.00;;
26750;SDS011;14345;48.272;25.926;2022-07-29T04:20:49;8.10;;;2.78;;
26750;SDS011;14345;48.272;25.926;2022-07-29T04:23:15;5.13;;;3.00;;
26750;SDS011;14345;48.272;25.926;2022-07-29T04:25:41;1.95;;;1.38;;
26750;SDS011;14345;48.272;25.926;2022-07-29T04:28:08;2.53;;;1.95;;
26750;SDS011;14345;48.272;25.926;2022-07-29T04:30:35;4.55;;;2.10;;
26750;SDS011;14345;48.272;25.926;2022-07-29T04:33:02;5.97;;;1.80;;
26750;SDS011;14345;48.272;25.926;2022-07-29T04:35:29;3.92;;;1.75;;
26750;SDS011;14345;48.272;25.926;2022-07-29T04:37:55;3.40;;;1.90;;
26750;SDS011;14345;48.272;25.926;2022-07-29T04:40:21;2.15;;;1.65;;
26750;SDS011;14345;48.272;25.926;2022-07-29T04:42:47;3.72;;;1.77;;
26750;SDS011;14345;48.272;25.926;2022-07-29T04:45:13;2.88;;;1.77;;
26750;SDS011;14345;48.272;25.926;2022-07-29T04:47:40;2.85;;;1.77;;
26750;SDS011;14345;48.272;25.926;2022-07-29T04:50:06;3.97;;;2.00;;
26750;SDS011;14345;48.272;25.926;2022-07-29T04:52:33;4.03;;;2.17;;
26750;SDS011;14345;48.272;25.926;2022-07-29T04:55:00;6.63;;;2.47;;
26750;SDS011;14345;48.272;25.926;2022-07-29T04:57:26;6.95;;;2.85;;
26750;SDS011;14345;48.272;25.926;2022-07-29T04:59:52;4.60;;;2.72;;
26750;SDS011;14345;48.272;25.926;2022-07-29T05:02:18;3.42;;;2.45;;
26750;SDS011;14345;48.272;25.926;2022-07-29T05:04:44;9.15;;;3.05;;
26750;SDS011;14345;48.272;25.926;2022-07-29T05:07:10;4.20;;;2.55;;
26750;SDS011;14345;48.272;25.926;2022-07-29T05:09:36;5.95;;;3.00;;
26750;SDS011;14345;48.272;25.926;2022-07-29T05:12:02;6.35;;;2.95;;
26750;SDS011;14345;48.272;25.926;2022-07-29T05:14:28;4.88;;;2.75;;
26750;SDS011;14345;48.272;25.926;2022-07-29T05:16:54;3.85;;;2.40;;
26750;SDS011;14345;48.272;25.926;2022-07-29T05:19:22;4.82;;;2.40;;
26750;SDS011;14345;48.272;25.926;2022-07-29T05:21:48;5.93;;;2.17;;
26750;SDS011;14345;48.272;25.926;2022-07-29T05:24:14;4.82;;;2.25;;
26750;SDS011;14345;48.272;25.926;2022-07-29T05:26:41;4.20;;;2.40;;
26750;SDS011;14345;48.272;25.926;2022-07-29T05:29:07;5.93;;;2.67;;
26750;SDS011;14345;48.272;25.926;2022-07-29T05:31:33;6.18;;;2.47;;
26750;SDS011;14345;48.272;25.926;2022-07-29T05:33:59;4.10;;;2.58;;
26750;SDS011;14345;48.272;25.926;2022-07-29T05:36:25;4.60;;;3.08;;
26750;SDS011;14345;48.272;25.926;2022-07-29T05:38:51;7.25;;;2.35;;
26750;SDS011;14345;48.272;25.926;2022-07-29T05:41:18;8.77;;;2.78;;
26750;SDS011;14345;48.272;25.926;2022-07-29T05:43:44;5.93;;;2.45;;
26750;SDS011;14345;48.272;25.926;2022-07-29T05:46:10;8.77;;;2.10;;
26750;SDS011;14345;48.272;25.926;2022-07-29T05:48:36;5.53;;;2.35;;
26750;SDS011;14345;48.272;25.926;2022-07-29T05:51:03;3.63;;;1.70;;
26750;SDS011;14345;48.272;25.926;2022-07-29T05:53:30;4.32;;;1.98;;
26750;SDS011;14345;48.272;25.926;2022-07-29T05:55:56;3.30;;;1.90;;
26750;SDS011;14345;48.272;25.926;2022-07-29T05:58:22;2.83;;;2.00;;
26750;SDS011;14345;48.272;25.926;2022-07-29T06:00:48;2.97;;;2.00;;
26750;SDS011;14345;48.272;25.926;2022-07-29T06:03:14;3.45;;;1.60;;
26750;SDS011;14345;48.272;25.926;2022-07-29T06:05:40;7.10;;;1.90;;
26750;SDS011;14345;48.272;25.926;2022-07-29T06:08:06;4.00;;;2.05;;
26750;SDS011;14345;48.272;25.926;2022-07-29T06:10:34;5.35;;;2.20;;
26750;SDS011;14345;48.272;25.926;2022-07-29T06:13:00;5.93;;;2.10;;
26750;SDS011;14345;48.272;25.926;2022-07-29T06:15:26;5.32;;;2.33;;
26750;SDS011;14345;48.272;25.926;2022-07-29T06:17:52;6.18;;;2.50;;
26750;SDS011;14345;48.272;25.926;2022-07-29T06:20:18;7.60;;;2.80;;
26750;SDS011;14345;48.272;25.926;2022-07-29T06:22:44;5.10;;;2.60;;
26750;SDS011;14345;48.272;25.926;2022-07-29T06:25:10;3.72;;;2.45;;
26750;SDS011;14345;48.272;25.926;2022-07-29T06:27:37;6.78;;;2.63;;
26750;SDS011;14345;48.272;25.926;2022-07-29T06:30:03;4.20;;;2.42;;
26750;SDS011;14345;48.272;25.926;2022-07-29T06:32:32;4.57;;;2.33;;
26750;SDS011;14345;48.272;25.926;2022-07-29T06:34:58;3.85;;;2.40;;
26750;SDS011;14345;48.272;25.926;2022-07-29T06:37:24;3.85;;;1.88;;
26750;SDS011;14345;48.272;25.926;2022-07-29T06:39:50;4.53;;;2.05;;
26750;SDS011;14345;48.272;25.926;2022-07-29T06:42:36;4.30;;;2.83;;
26750;SDS011;14345;48.272;25.926;2022-07-29T06:45:02;5.88;;;2.90;;
26750;SDS011;14345;48.272;25.926;2022-07-29T06:47:28;5.07;;;2.60;;
26750;SDS011;14345;48.272;25.926;2022-07-29T06:49:54;4.97;;;2.40;;
26750;SDS011;14345;48.272;25.926;2022-07-29T06:52:20;4.40;;;2.28;;
26750;SDS011;14345;48.272;25.926;2022-07-29T06:54:46;3.55;;;2.47;;
26750;SDS011;14345;48.272;25.926;2022-07-29T06:57:13;5.03;;;2.35;;
26750;SDS011;14345;48.272;25.926;2022-07-29T06:59:39;5.22;;;2.53;;
26750;SDS011;14345;48.272;25.926;2022-07-29T07:02:05;4.15;;;2.50;;
26750;SDS011;14345;48.272;25.926;2022-07-29T07:04:31;4.75;;;2.47;;
26750;SDS011;14345;48.272;25.926;2022-07-29T07:06:58;6.68;;;2.90;;
26750;SDS011;14345;48.272;25.926;2022-07-29T07:09:24;5.90;;;2.70;;
26750;SDS011;14345;48.272;25.926;2022-07-29T07:11:50;6.10;;;2.70;;
26750;SDS011;14345;48.272;25.926;2022-07-29T07:14:16;5.70;;;3.05;;
26750;SDS011;14345;48.272;25.926;2022-07-29T07:16:42;6.47;;;3.03;;
26750;SDS011;14345;48.272;25.926;2022-07-29T07:19:08;3.95;;;2.60;;
26750;SDS011;14345;48.272;25.926;2022-07-29T07:21:34;6.57;;;3.40;;
26750;SDS011;14345;48.272;25.926;2022-07-29T07:24:00;5.22;;;3.67;;
26750;SDS011;14345;48.272;25.926;2022-07-29T07:26:27;7.30;;;2.72;;
26750;SDS011;14345;48.272;25.926;2022-07-29T07:28:53;3.58;;;2.42;;
26750;SDS011;14345;48.272;25.926;2022-07-29T07:31:19;5.05;;;2.83;;
26750;SDS011;14345;48.272;25.926;2022-07-29T07:33:45;7.30;;;2.80;;
26750;SDS011;14345;48.272;25.926;2022-07-29T07:36:11;9.52;;;3.10;;
26750;SDS011;14345;48.272;25.926;2022-07-29T07:38:37;8.93;;;3.08;;
26750;SDS011;14345;48.272;25.926;2022-07-29T07:41:03;7.40;;;3.13;;
26750;SDS011;14345;48.272;25.926;2022-07-29T07:43:29;7.40;;;3.03;;
26750;SDS011;14345;48.272;25.926;2022-07-29T07:45:55;7.13;;;3.28;;
26750;SDS011;14345;48.272;25.926;2022-07-29T07:48:21;17.42;;;4.10;;
26750;SDS011;14345;48.272;25.926;2022-07-29T07:50:47;4.95;;;3.47;;
26750;SDS011;14345;48.272;25.926;2022-07-29T07:53:14;8.45;;;3.40;;
26750;SDS011;14345;48.272;25.926;2022-07-29T07:55:41;7.80;;;4.32;;
26750;SDS011;14345;48.272;25.926;2022-07-29T07:58:07;8.32;;;4.15;;
26750;SDS011;14345;48.272;25.926;2022-07-29T08:00:33;9.25;;;4.25;;
26750;SDS011;14345;48.272;25.926;2022-07-29T08:02:59;7.75;;;3.53;;
26750;SDS011;14345;48.272;25.926;2022-07-29T08:05:25;8.13;;;3.58;;
26750;SDS011;14345;48.272;25.926;2022-07-29T08:07:51;8.77;;;3.60;;
26750;SDS011;14345;48.272;25.926;2022-07-29T08:10:18;5.35;;;3.25;;
26750;SDS011;14345;48.272;25.926;2022-07-29T08:13:04;10.05;;;4.32;;
26750;SDS011;14345;48.272;25.926;2022-07-29T08:15:30;10.18;;;4.72;;
26750;SDS011;14345;48.272;25.926;2022-07-29T08:17:56;10.93;;;5.13;;
26750;SDS011;14345;48.272;25.926;2022-07-29T08:20:22;25.45;;;8.15;;
26750;SDS011;14345;48.272;25.926;2022-07-29T08:22:48;39.95;;;10.65;;
26750;SDS011;14345;48.272;25.926;2022-07-29T08:25:14;11.85;;;5.47;;
26750;SDS011;14345;48.272;25.926;2022-07-29T08:27:42;21.75;;;6.90;;
26750;SDS011;14345;48.272;25.926;2022-07-29T08:30:08;9.13;;;4.47;;
26750;SDS011;14345;48.272;25.926;2022-07-29T08:32:35;11.68;;;4.60;;
26750;SDS011;14345;48.272;25.926;2022-07-29T08:35:01;20.70;;;7.07;;
26750;SDS011;14345;48.272;25.926;2022-07-29T08:37:27;7.47;;;3.90;;
26750;SDS011;14345;48.272;25.926;2022-07-29T08:39:53;6.30;;;3.58;;
26750;SDS011;14345;48.272;25.926;2022-07-29T08:42:19;6.68;;;4.30;;
26750;SDS011;14345;48.272;25.926;2022-07-29T08:44:45;9.27;;;6.80;;
26750;SDS011;14345;48.272;25.926;2022-07-29T08:47:13;5.75;;;3.85;;
26750;SDS011;14345;48.272;25.926;2022-07-29T08:49:39;5.55;;;3.40;;
26750;SDS011;14345;48.272;25.926;2022-07-29T08:52:05;5.28;;;3.40;;
26750;SDS011;14345;48.272;25.926;2022-07-29T08:54:32;6.53;;;3.38;;
26750;SDS011;14345;48.272;25.926;2022-07-29T08:56:58;5.55;;;3.78;;
26750;SDS011;14345;48.272;25.926;2022-07-29T08:59:25;6.85;;;3.60;;
26750;SDS011;14345;48.272;25.926;2022-07-29T09:01:53;9.68;;;3.45;;
26750;SDS011;14345;48.272;25.926;2022-07-29T09:04:20;4.75;;;2.70;;
26750;SDS011;14345;48.272;25.926;2022-07-29T09:06:47;5.13;;;3.15;;
26750;SDS011;14345;48.272;25.926;2022-07-29T09:09:13;4.75;;;2.90;;
26750;SDS011;14345;48.272;25.926;2022-07-29T09:11:40;3.92;;;2.50;;
26750;SDS011;14345;48.272;25.926;2022-07-29T09:14:06;5.03;;;2.70;;
26750;SDS011;14345;48.272;25.926;2022-07-29T09:16:46;4.05;;;2.65;;
26750;SDS011;14345;48.272;25.926;2022-07-29T09:21:53;4.03;;;3.03;;
26750;SDS011;14345;48.272;25.926;2022-07-29T09:24:23;5.57;;;3.00;;
26750;SDS011;14345;48.272;25.926;2022-07-29T09:26:49;3.78;;;3.13;;
26750;SDS011;14345;48.272;25.926;2022-07-29T09:29:19;5.75;;;3.17;;
26750;SDS011;14345;48.272;25.926;2022-07-29T09:31:46;3.42;;;2.47;;
26750;SDS011;14345;48.272;25.926;2022-07-29T09:34:14;5.93;;;2.90;;
26750;SDS011;14345;48.272;25.926;2022-07-29T09:36:44;4.45;;;2.50;;
26750;SDS011;14345;48.272;25.926;2022-07-29T09:39:11;5.57;;;2.50;;
26750;SDS011;14345;48.272;25.926;2022-07-29T09:41:50;6.10;;;3.78;;
26750;SDS011;14345;48.272;25.926;2022-07-29T09:44:20;3.70;;;2.50;;
26750;SDS011;14345;48.272;25.926;2022-07-29T09:49:19;10.95;;;3.03;;
26750;SDS011;14345;48.272;25.926;2022-07-29T09:51:45;5.38;;;2.10;;
26750;SDS011;14345;48.272;25.926;2022-07-29T09:54:24;3.38;;;2.33;;
26750;SDS011;14345;48.272;25.926;2022-07-29T09:56:53;2.55;;;2.17;;
26750;SDS011;14345;48.272;25.926;2022-07-29T09:59:20;3.63;;;2.53;;
26750;SDS011;14345;48.272;25.926;2022-07-29T10:01:51;5.97;;;2.53;;
26750;SDS011;14345;48.272;25.926;2022-07-29T10:04:17;4.25;;;2.70;;
26750;SDS011;14345;48.272;25.926;2022-07-29T10:07:00;12.32;;;9.88;;
26750;SDS011;14345;48.272;25.926;2022-07-29T10:09:26;7.88;;;6.32;;
26750;SDS011;14345;48.272;25.926;2022-07-29T10:14:31;7.30;;;2.97;;
26750;SDS011;14345;48.272;25.926;2022-07-29T10:17:02;3.90;;;2.45;;
26750;SDS011;14345;48.272;25.926;2022-07-29T10:19:29;3.85;;;2.40;;
26750;SDS011;14345;48.272;25.926;2022-07-29T10:21:57;7.03;;;2.30;;
26750;SDS011;14345;48.272;25.926;2022-07-29T10:24:24;7.55;;;2.63;;
26750;SDS011;14345;48.272;25.926;2022-07-29T10:26:51;4.40;;;2.20;;
26750;SDS011;14345;48.272;25.926;2022-07-29T10:29:18;2.35;;;2.15;;
26750;SDS011;14345;48.272;25.926;2022-07-29T10:34:20;8.98;;;2.45;;
26750;SDS011;14345;48.272;25.926;2022-07-29T10:37:08;4.22;;;1.90;;
26750;SDS011;14345;48.272;25.926;2022-07-29T10:42:23;5.38;;;1.92;;
26750;SDS011;14345;48.272;25.926;2022-07-29T10:44:50;4.90;;;1.70;;
26750;SDS011;14345;48.272;25.926;2022-07-29T10:47:21;2.97;;;1.73;;
26750;SDS011;14345;48.272;25.926;2022-07-29T10:50:01;4.18;;;2.13;;
26750;SDS011;14345;48.272;25.926;2022-07-29T10:55:32;2.38;;;1.40;;
26750;SDS011;14345;48.272;25.926;2022-07-29T11:00:44;2.00;;;1.38;;
26750;SDS011;14345;48.272;25.926;2022-07-29T11:05:56;1.98;;;1.45;;
26750;SDS011;14345;48.272;25.926;2022-07-29T11:08:23;3.63;;;2.08;;
26750;SDS011;14345;48.272;25.926;2022-07-29T11:10:51;4.97;;;1.85;;
26750;SDS011;14345;48.272;25.926;2022-07-29T11:16:22;2.85;;;1.58;;
26750;SDS011;14345;48.272;25.926;2022-07-29T11:21:36;4.70;;;1.50;;
26750;SDS011;14345;48.272;25.926;2022-07-29T11:29:35;2.13;;;1.38;;
26750;SDS011;14345;48.272;25.926;2022-07-29T11:32:08;3.90;;;1.50;;
26750;SDS011;14345;48.272;25.926;2022-07-29T11:34:34;2.75;;;1.40;;
26750;SDS011;14345;48.272;25.926;2022-07-29T11:39:38;6.32;;;1.80;;
26750;SDS011;14345;48.272;25.926;2022-07-29T11:44:56;2.17;;;1.40;;
26750;SDS011;14345;48.272;25.926;2022-07-29T11:47:22;2.53;;;1.27;;
26750;SDS011;14345;48.272;25.926;2022-07-29T11:49:51;1.85;;;1.38;;
26750;SDS011;14345;48.272;25.926;2022-07-29T11:52:18;1.67;;;1.27;;
26750;SDS011;14345;48.272;25.926;2022-07-29T11:54:44;6.10;;;2.67;;
26750;SDS011;14345;48.272;25.926;2022-07-29T11:57:13;2.83;;;1.75;;
26750;SDS011;14345;48.272;25.926;2022-07-29T11:59:41;5.47;;;1.50;;
26750;SDS011;14345;48.272;25.926;2022-07-29T12:02:07;1.85;;;1.20;;
26750;SDS011;14345;48.272;25.926;2022-07-29T12:04:34;1.45;;;1.13;;
26750;SDS011;14345;48.272;25.926;2022-07-29T12:07:00;2.35;;;1.38;;
26750;SDS011;14345;48.272;25.926;2022-07-29T12:09:26;3.25;;;1.20;;
26750;SDS011;14345;48.272;25.926;2022-07-29T12:11:56;2.15;;;1.15;;
26750;SDS011;14345;48.272;25.926;2022-07-29T12:14:30;1.55;;;1.30;;
26750;SDS011;14345;48.272;25.926;2022-07-29T12:16:56;3.70;;;1.20;;
26750;SDS011;14345;48.272;25.926;2022-07-29T12:19:23;5.25;;;1.40;;
26750;SDS011;14345;48.272;25.926;2022-07-29T12:21:55;2.22;;;1.30;;
26750;SDS011;14345;48.272;25.926;2022-07-29T12:24:23;4.05;;;1.60;;
26750;SDS011;14345;48.272;25.926;2022-07-29T12:26:53;4.30;;;1.25;;
26750;SDS011;14345;48.272;25.926;2022-07-29T12:29:21;2.28;;;1.20;;
26750;SDS011;14345;48.272;25.926;2022-07-29T12:31:50;2.83;;;0.93;;
26750;SDS011;14345;48.272;25.926;2022-07-29T12:34:19;1.17;;;0.90;;
26750;SDS011;14345;48.272;25.926;2022-07-29T12:36:45;3.03;;;1.10;;
26750;SDS011;14345;48.272;25.926;2022-07-29T12:39:11;3.38;;;2.38;;
26750;SDS011;14345;48.272;25.926;2022-07-29T12:41:37;5.13;;;2.20;;
26750;SDS011;14345;48.272;25.926;2022-07-29T12:44:04;4.75;;;2.17;;
26750;SDS011;14345;48.272;25.926;2022-07-29T12:46:30;4.35;;;1.40;;
26750;SDS011;14345;48.272;25.926;2022-07-29T12:48:56;2.35;;;1.40;;
26750;SDS011;14345;48.272;25.926;2022-07-29T12:54:06;1.42;;;1.20;;
26750;SDS011;14345;48.272;25.926;2022-07-29T12:56:32;2.47;;;0.95;;
26750;SDS011;14345;48.272;25.926;2022-07-29T12:58:59;1.98;;;1.20;;
26750;SDS011;14345;48.272;25.926;2022-07-29T13:01:25;1.48;;;0.95;;
26750;SDS011;14345;48.272;25.926;2022-07-29T13:06:31;5.00;;;1.75;;
26750;SDS011;14345;48.272;25.926;2022-07-29T13:09:00;2.30;;;1.40;;
26750;SDS011;14345;48.272;25.926;2022-07-29T13:11:30;1.60;;;1.17;;
26750;SDS011;14345;48.272;25.926;2022-07-29T13:13:56;1.55;;;1.10;;
26750;SDS011;14345;48.272;25.926;2022-07-29T13:16:22;2.47;;;1.08;;
26750;SDS011;14345;48.272;25.926;2022-07-29T13:18:48;2.13;;;1.25;;
26750;SDS011;14345;48.272;25.926;2022-07-29T13:21:14;1.42;;;0.90;;
26750;SDS011;14345;48.272;25.926;2022-07-29T13:23:41;1.17;;;1.08;;
26750;SDS011;14345;48.272;25.926;2022-07-29T13:26:08;6.82;;;1.55;;
26750;SDS011;14345;48.272;25.926;2022-07-29T13:28:34;2.83;;;1.70;;
26750;SDS011;14345;48.272;25.926;2022-07-29T13:31:01;3.05;;;2.00;;
26750;SDS011;14345;48.272;25.926;2022-07-29T13:33:27;6.53;;;4.55;;
26750;SDS011;14345;48.272;25.926;2022-07-29T13:35:53;1.65;;;1.55;;
26750;SDS011;14345;48.272;25.926;2022-07-29T13:38:19;1.73;;;1.15;;
26750;SDS011;14345;48.272;25.926;2022-07-29T13:40:45;1.88;;;1.20;;
26750;SDS011;14345;48.272;25.926;2022-07-29T13:43:11;1.70;;;1.33;;
26750;SDS011;14345;48.272;25.926;2022-07-29T13:45:37;1.35;;;1.10;;
26750;SDS011;14345;48.272;25.926;2022-07-29T13:48:04;1.63;;;1.10;;
26750;SDS011;14345;48.272;25.926;2022-07-29T13:50:31;2.85;;;1.20;;
26750;SDS011;14345;48.272;25.926;2022-07-29T13:52:57;2.53;;;1.40;;
26750;SDS011;14345;48.272;25.926;2022-07-29T13:55:23;3.17;;;1.70;;
26750;SDS011;14345;48.272;25.926;2022-07-29T13:57:49;3.42;;;1.45;;
26750;SDS011;14345;48.272;25.926;2022-07-29T14:00:16;1.63;;;1.40;;
26750;SDS011;14345;48.272;25.926;2022-07-29T14:02:43;1.92;;;1.70;;
26750;SDS011;14345;48.272;25.926;2022-07-29T14:05:09;1.60;;;1.40;;
26750;SDS011;14345;48.272;25.926;2022-07-29T14:07:36;2.83;;;1.60;;
26750;SDS011;14345;48.272;25.926;2022-07-29T14:10:04;2.25;;;1.45;;
26750;SDS011;14345;48.272;25.926;2022-07-29T14:12:30;2.45;;;1.70;;
26750;SDS011;14345;48.272;25.926;2022-07-29T14:14:56;4.35;;;1.50;;
26750;SDS011;14345;48.272;25.926;2022-07-29T14:17:22;2.13;;;1.40;;
26750;SDS011;14345;48.272;25.926;2022-07-29T14:19:48;2.47;;;1.33;;
26750;SDS011;14345;48.272;25.926;2022-07-29T14:22:14;3.72;;;2.00;;
26750;SDS011;14345;48.272;25.926;2022-07-29T14:24:40;2.20;;;1.60;;
26750;SDS011;14345;48.272;25.926;2022-07-29T14:27:06;4.18;;;1.75;;
26750;SDS011;14345;48.272;25.926;2022-07-29T14:29:33;7.53;;;2.28;;
26750;SDS011;14345;48.272;25.926;2022-07-29T14:31:59;5.07;;;2.00;;
26750;SDS011;14345;48.272;25.926;2022-07-29T14:34:25;5.60;;;2.10;;
26750;SDS011;14345;48.272;25.926;2022-07-29T14:36:51;4.28;;;2.00;;
26750;SDS011;14345;48.272;25.926;2022-07-29T14:39:20;2.33;;;1.70;;
26750;SDS011;14345;48.272;25.926;2022-07-29T14:41:47;3.63;;;1.50;;
26750;SDS011;14345;48.272;25.926;2022-07-29T14:44:14;3.28;;;1.88;;
26750;SDS011;14345;48.272;25.926;2022-07-29T14:46:40;3.80;;;1.85;;
26750;SDS011;14345;48.272;25.926;2022-07-29T14:49:06;4.63;;;1.75;;
26750;SDS011;14345;48.272;25.926;2022-07-29T14:51:32;8.45;;;4.78;;
26750;SDS011;14345;48.272;25.926;2022-07-29T14:53:58;6.85;;;3.63;;
26750;SDS011;14345;48.272;25.926;2022-07-29T14:56:24;4.55;;;1.80;;
26750;SDS011;14345;48.272;25.926;2022-07-29T14:58:50;2.47;;;1.42;;
26750;SDS011;14345;48.272;25.926;2022-07-29T15:01:16;2.88;;;1.83;;
26750;SDS011;14345;48.272;25.926;2022-07-29T15:03:42;2.80;;;1.80;;
26750;SDS011;14345;48.272;25.926;2022-07-29T15:06:08;3.50;;;1.67;;
26750;SDS011;14345;48.272;25.926;2022-07-29T15:08:34;3.55;;;2.13;;
26750;SDS011;14345;48.272;25.926;2022-07-29T15:11:00;4.05;;;1.75;;
26750;SDS011;14345;48.272;25.926;2022-07-29T15:13:26;3.58;;;1.95;;
26750;SDS011;14345;48.272;25.926;2022-07-29T15:15:52;4.07;;;1.80;;
26750;SDS011;14345;48.272;25.926;2022-07-29T15:18:19;3.67;;;1.73;;
26750;SDS011;14345;48.272;25.926;2022-07-29T15:20:45;4.07;;;2.22;;
26750;SDS011;14345;48.272;25.926;2022-07-29T15:23:11;5.85;;;2.03;;
26750;SDS011;14345;48.272;25.926;2022-07-29T15:25:38;2.75;;;1.60;;
26750;SDS011;14345;48.272;25.926;2022-07-29T15:28:04;3.42;;;1.90;;
26750;SDS011;14345;48.272;25.926;2022-07-29T15:30:33;2.53;;;1.65;;
26750;SDS011;14345;48.272;25.926;2022-07-29T15:33:04;3.75;;;1.80;;
26750;SDS011;14345;48.272;25.926;2022-07-29T15:35:31;1.80;;;1.60;;